createdAt,value
2022-08-17T00:00:44.136Z,18.99
2022-08-17T00:03:09.008Z,18.97
2022-08-17T00:05:41.379Z,18.95
2022-08-17T00:08:07.895Z,18.93
2022-08-17T00:10:34.305Z,18.94
2022-08-17T00:13:04.396Z,18.99
2022-08-17T00:15:30.591Z,19.05
2022-08-17T00:17:56.941Z,19.10
2022-08-17T00:20:30.619Z,19.13
2022-08-17T00:23:19.404Z,19.17
2022-08-17T00:25:46.168Z,19.22
2022-08-17T00:28:15.408Z,19.27
2022-08-17T00:30:51.284Z,19.32
2022-08-17T00:33:25.563Z,19.35
2022-08-17T00:35:52.556Z,19.37
2022-08-17T00:38:19.003Z,19.40
2022-08-17T00:40:46.948Z,19.41
2022-08-17T00:43:17.096Z,19.41
2022-08-17T00:45:43.780Z,19.40
2022-08-17T00:48:11.557Z,19.40
2022-08-17T00:51:07.057Z,19.39
2022-08-17T00:53:34.453Z,19.35
2022-08-17T00:56:01.419Z,19.31
2022-08-17T00:58:30.452Z,19.29
2022-08-17T01:01:04.141Z,19.26
2022-08-17T01:03:30.524Z,19.21
2022-08-17T01:05:59.219Z,19.16
2022-08-17T01:08:26.987Z,19.10
2022-08-17T01:11:00.186Z,19.06
2022-08-17T01:13:31.283Z,19.05
2022-08-17T01:15:59.444Z,19.04
2022-08-17T01:18:25.833Z,19.01
2022-08-17T01:20:53.268Z,18.98
2022-08-17T01:23:21.131Z,18.97
2022-08-17T01:25:51.338Z,18.96
2022-08-17T01:28:53.095Z,18.95
2022-08-17T01:31:04.921Z,18.92
2022-08-17T01:33:31.458Z,18.88
2022-08-17T01:35:57.632Z,18.83
2022-08-17T01:38:27.329Z,18.78
2022-08-17T01:40:57.358Z,18.74
2022-08-17T01:43:25.368Z,18.70
2022-08-17T01:46:02.789Z,18.67
2022-08-17T01:48:31.691Z,18.66
2022-08-17T01:50:58.751Z,18.64
2022-08-17T01:53:32.608Z,18.60
2022-08-17T01:55:59.972Z,18.57
2022-08-17T01:58:26.285Z,18.56
2022-08-17T02:01:00.841Z,18.53
2022-08-17T02:03:27.988Z,18.52
2022-08-17T02:05:54.513Z,18.49
2022-08-17T02:08:21.011Z,18.47
2022-08-17T02:11:11.159Z,18.44
2022-08-17T02:13:38.184Z,18.42
2022-08-17T02:16:04.520Z,18.41
2022-08-17T02:18:30.697Z,18.40
2022-08-17T02:20:56.945Z,18.37
2022-08-17T02:23:23.759Z,18.34
2022-08-17T02:25:51.073Z,18.32
2022-08-17T02:28:17.805Z,18.31
2022-08-17T02:31:00.765Z,18.29
2022-08-17T02:33:41.941Z,18.24
2022-08-17T02:36:10.201Z,18.23
2022-08-17T02:38:36.643Z,18.23
2022-08-17T02:41:03.005Z,18.23
2022-08-17T02:43:29.238Z,18.21
2022-08-17T02:45:55.527Z,18.19
2022-08-17T02:48:31.149Z,18.16
2022-08-17T02:50:58.743Z,18.14
2022-08-17T02:53:25.698Z,18.13
2022-08-17T02:55:52.307Z,18.11
2022-08-17T02:58:18.882Z,18.09
2022-08-17T03:01:03.070Z,18.09
2022-08-17T03:03:29.359Z,18.09
2022-08-17T03:05:55.760Z,18.07
2022-08-17T03:08:22.617Z,18.05
2022-08-17T03:10:49.775Z,18.06
2022-08-17T03:13:16.199Z,18.06
2022-08-17T03:15:44.534Z,18.04
2022-08-17T03:18:24.497Z,18.02
2022-08-17T03:20:56.289Z,17.99
2022-08-17T03:23:23.946Z,17.96
2022-08-17T03:25:53.389Z,17.95
2022-08-17T03:28:20.124Z,17.93
2022-08-17T03:30:46.456Z,17.89
2022-08-17T03:33:12.906Z,17.87
2022-08-17T03:35:39.757Z,17.85
2022-08-17T03:38:06.311Z,17.85
2022-08-17T03:40:55.354Z,17.86
2022-08-17T03:43:19.413Z,17.87
2022-08-17T03:46:04.264Z,17.88
2022-08-17T03:48:51.646Z,17.90
2022-08-17T03:51:40.317Z,17.93
2022-08-17T03:54:25.623Z,17.98
2022-08-17T03:56:59.013Z,18.00
2022-08-17T03:59:25.282Z,17.99
2022-08-17T04:01:53.146Z,18.01
2022-08-17T04:04:20.176Z,18.05
2022-08-17T04:06:54.020Z,18.08
2022-08-17T04:09:20.292Z,18.13
2022-08-17T04:11:46.502Z,18.23
2022-08-17T04:14:12.768Z,18.33
2022-08-17T04:16:38.965Z,18.43
2022-08-17T04:19:05.179Z,18.51
2022-08-17T04:21:31.373Z,18.62
2022-08-17T04:23:58.615Z,18.78
2022-08-17T04:26:53.598Z,18.91
2022-08-17T04:29:11.120Z,19.01
2022-08-17T04:31:39.018Z,19.08
2022-08-17T04:34:05.331Z,19.14
2022-08-17T04:36:31.581Z,19.16
2022-08-17T04:38:58.350Z,19.21
2022-08-17T04:41:43.385Z,19.28
2022-08-17T04:44:11.004Z,19.40
2022-08-17T04:46:37.628Z,19.53
2022-08-17T04:49:05.442Z,19.63
2022-08-17T04:51:35.942Z,19.74
2022-08-17T04:54:03.977Z,19.82
2022-08-17T04:56:30.320Z,19.93
2022-08-17T04:58:57.994Z,20.08
2022-08-17T05:01:24.881Z,20.26
2022-08-17T05:03:52.076Z,20.44
2022-08-17T05:06:18.369Z,20.61
2022-08-17T05:08:44.551Z,20.75
2022-08-17T05:11:11.699Z,20.90
2022-08-17T05:13:37.975Z,21.06
2022-08-17T05:16:04.527Z,21.24
2022-08-17T05:18:30.736Z,21.41
2022-08-17T05:20:57.331Z,21.55
2022-08-17T05:23:24.599Z,21.68
2022-08-17T05:25:51.889Z,21.81
2022-08-17T05:28:20.018Z,21.95
2022-08-17T05:30:50.946Z,22.14
2022-08-17T05:33:18.930Z,22.30
2022-08-17T05:35:46.537Z,22.39
2022-08-17T05:38:13.379Z,22.50
2022-08-17T05:40:39.760Z,22.63
2022-08-17T05:43:10.260Z,22.76
2022-08-17T05:45:54.592Z,22.84
2022-08-17T05:48:21.492Z,22.98
2022-08-17T05:51:14.908Z,23.11
2022-08-17T05:54:09.234Z,23.24
2022-08-17T05:56:47.616Z,23.32
2022-08-17T05:59:35.264Z,23.41
2022-08-17T06:02:04.567Z,23.50
2022-08-17T06:04:49.495Z,23.54
2022-08-17T06:07:24.684Z,23.66
2022-08-17T06:09:50.955Z,23.72
2022-08-17T06:12:26.271Z,23.87
2022-08-17T06:15:06.712Z,24.10
2022-08-17T06:17:32.858Z,24.15
2022-08-17T06:20:00.348Z,24.24
2022-08-17T06:22:27.795Z,24.50
2022-08-17T06:24:56.237Z,24.67
2022-08-17T06:27:25.821Z,24.86
2022-08-17T06:29:53.281Z,25.14
2022-08-17T06:32:19.626Z,25.35
2022-08-17T06:34:45.932Z,25.53
2022-08-17T06:37:12.206Z,25.51
2022-08-17T06:39:38.518Z,25.65
2022-08-17T06:42:54.881Z,25.82
2022-08-17T06:45:07.210Z,25.83
2022-08-17T06:47:33.335Z,25.76
2022-08-17T06:50:04.904Z,25.79
2022-08-17T06:52:45.916Z,25.96
2022-08-17T06:55:17.810Z,26.22
2022-08-17T06:57:46.423Z,26.45
2022-08-17T07:00:14.328Z,26.73
2022-08-17T07:02:54.952Z,26.92
2022-08-17T07:05:22.208Z,27.10
2022-08-17T07:08:02.977Z,27.27
2022-08-17T07:10:37.461Z,27.36
2022-08-17T07:13:28.723Z,27.42
2022-08-17T07:15:57.996Z,27.61
2022-08-17T07:18:24.857Z,27.83
2022-08-17T07:20:51.614Z,27.91
2022-08-17T07:23:22.741Z,27.98
2022-08-17T07:25:49.171Z,27.98
2022-08-17T07:28:18.766Z,27.93
2022-08-17T07:30:48.494Z,28.05
2022-08-17T07:33:20.105Z,28.46
2022-08-17T07:35:47.708Z,28.74
2022-08-17T07:38:25.008Z,28.97
2022-08-17T07:41:03.153Z,29.08
2022-08-17T07:43:31.139Z,29.20
2022-08-17T07:46:17.555Z,29.35
2022-08-17T07:48:45.886Z,29.47
2022-08-17T07:51:14.143Z,29.55
2022-08-17T07:53:40.968Z,29.53
2022-08-17T07:56:07.675Z,29.36
2022-08-17T07:58:33.930Z,29.33
2022-08-17T08:01:10.865Z,29.57
2022-08-17T08:03:42.336Z,29.99
2022-08-17T08:06:20.080Z,30.21
2022-08-17T08:08:49.976Z,30.29
2022-08-17T08:11:27.811Z,30.23
2022-08-17T08:13:53.998Z,30.11
2022-08-17T08:16:25.722Z,30.21
2022-08-17T08:18:55.317Z,30.61
2022-08-17T08:21:36.283Z,30.88
2022-08-17T08:24:09.269Z,30.94
2022-08-17T08:26:46.974Z,30.96
2022-08-17T08:29:22.939Z,31.21
2022-08-17T08:31:52.804Z,31.45
2022-08-17T08:34:59.194Z,31.51
2022-08-17T08:37:35.726Z,31.75
2022-08-17T08:40:07.831Z,32.03
2022-08-17T08:42:55.846Z,32.22
2022-08-17T08:45:22.421Z,32.35
2022-08-17T08:47:54.594Z,32.41
2022-08-17T08:50:37.110Z,32.43
2022-08-17T08:53:18.511Z,32.51
2022-08-17T08:55:58.054Z,32.82
2022-08-17T08:58:31.521Z,33.15
2022-08-17T09:01:13.096Z,34.48
2022-08-17T09:03:53.841Z,34.88
2022-08-17T09:06:40.394Z,34.86
2022-08-17T09:09:06.764Z,36.22
2022-08-17T09:12:01.952Z,37.77
2022-08-17T09:14:45.114Z,40.17
2022-08-17T09:17:18.732Z,39.62
2022-08-17T09:19:50.038Z,41.29
2022-08-17T09:22:16.888Z,44.48
2022-08-17T09:24:44.126Z,47.38
2022-08-17T09:27:12.715Z,47.71
2022-08-17T09:29:42.184Z,46.28
2022-08-17T09:32:16.963Z,47.80
2022-08-17T09:34:48.508Z,46.85
2022-08-17T09:37:25.634Z,48.04
2022-08-17T09:39:57.923Z,46.27
2022-08-17T09:42:32.871Z,46.26
2022-08-17T09:45:06.369Z,46.07
2022-08-17T09:47:32.497Z,47.44
2022-08-17T09:50:09.089Z,50.07
2022-08-17T09:52:35.435Z,52.44
2022-08-17T09:55:01.957Z,52.86
2022-08-17T09:57:43.596Z,50.00
2022-08-17T10:00:15.719Z,51.34
2022-08-17T10:03:08.974Z,52.78
2022-08-17T10:05:56.334Z,53.69
2022-08-17T10:08:30.157Z,55.52
2022-08-17T10:10:59.213Z,55.65
2022-08-17T10:13:32.219Z,55.53
2022-08-17T10:16:00.647Z,56.69
2022-08-17T10:18:45.678Z,57.52
2022-08-17T10:21:31.436Z,57.61
2022-08-17T10:24:24.476Z,58.91
2022-08-17T10:26:56.490Z,58.47
2022-08-17T10:29:48.541Z,58.12
2022-08-17T10:32:31.587Z,58.50
2022-08-17T10:35:01.002Z,58.92
2022-08-17T10:37:49.196Z,58.17
2022-08-17T10:40:19.058Z,59.66
2022-08-17T10:42:49.762Z,60.17
2022-08-17T10:45:22.891Z,60.61
2022-08-17T10:48:20.747Z,58.86
2022-08-17T10:50:47.464Z,56.59
2022-08-17T10:53:31.994Z,53.73
2022-08-17T10:56:24.611Z,50.95
2022-08-17T10:58:53.329Z,49.95
2022-08-17T11:01:28.873Z,49.75
2022-08-17T11:03:56.961Z,49.36
2022-08-17T11:06:23.295Z,49.08
2022-08-17T11:09:08.266Z,48.87
2022-08-17T11:11:39.906Z,48.30
2022-08-17T11:14:24.438Z,47.64
2022-08-17T11:17:05.795Z,47.07
2022-08-17T11:19:31.943Z,46.15
2022-08-17T11:21:58.078Z,45.16
2022-08-17T11:24:29.866Z,44.19
2022-08-17T11:27:05.292Z,43.35
2022-08-17T11:29:38.297Z,42.86
2022-08-17T11:32:12.623Z,42.14
2022-08-17T11:34:39.511Z,41.30
2022-08-17T11:37:14.921Z,40.85
2022-08-17T11:39:44.647Z,40.65
2022-08-17T11:42:11.164Z,40.75
2022-08-17T11:44:41.087Z,40.25
2022-08-17T11:47:32.694Z,39.40
2022-08-17T11:50:32.783Z,38.86
2022-08-17T11:52:58.967Z,38.49
2022-08-17T11:55:38.418Z,38.38
2022-08-17T11:58:06.817Z,38.19
2022-08-17T12:00:40.932Z,37.96
2022-08-17T12:03:21.917Z,37.70
2022-08-17T12:05:48.593Z,37.27
2022-08-17T12:08:17.941Z,36.81
2022-08-17T12:10:58.961Z,36.34
2022-08-17T12:13:27.347Z,35.95
2022-08-17T12:15:57.057Z,35.29
2022-08-17T12:18:29.235Z,35.19
2022-08-17T12:21:15.715Z,35.22
2022-08-17T12:23:50.488Z,35.00
2022-08-17T12:26:18.849Z,34.96
2022-08-17T12:28:49.675Z,35.11
2022-08-17T12:31:21.903Z,35.12
2022-08-17T12:33:49.375Z,34.76
2022-08-17T12:36:16.700Z,34.54
2022-08-17T12:38:48.915Z,34.32
2022-08-17T12:41:28.291Z,34.10
2022-08-17T12:44:00.970Z,33.93
2022-08-17T12:46:28.268Z,33.71
2022-08-17T12:49:09.762Z,33.29
2022-08-17T12:51:41.315Z,32.77
2022-08-17T12:54:07.501Z,32.58
2022-08-17T12:56:33.789Z,32.52
2022-08-17T12:59:01.458Z,32.40
2022-08-17T13:01:28.662Z,32.40
2022-08-17T13:03:56.476Z,32.68
2022-08-17T13:06:32.852Z,32.80
2022-08-17T13:09:30.969Z,32.89
2022-08-17T13:12:02.837Z,32.74
2022-08-17T13:14:32.535Z,32.59
2022-08-17T13:17:01.062Z,32.30
2022-08-17T13:19:39.753Z,32.13
2022-08-17T13:22:09.791Z,32.01
2022-08-17T13:24:38.073Z,31.89
2022-08-17T13:27:08.628Z,31.82
2022-08-17T13:29:34.979Z,31.73
2022-08-17T13:32:05.956Z,31.65
2022-08-17T13:34:59.594Z,31.73
2022-08-17T13:37:34.492Z,31.69
2022-08-17T13:40:12.735Z,31.72
2022-08-17T13:42:52.072Z,31.89
2022-08-17T13:45:36.720Z,31.99
2022-08-17T13:48:08.050Z,31.99
2022-08-17T13:50:39.621Z,32.10
2022-08-17T13:53:25.913Z,32.22
2022-08-17T13:55:55.394Z,32.33
2022-08-17T13:58:22.486Z,32.39
2022-08-17T14:00:49.976Z,32.22
2022-08-17T14:03:16.211Z,32.07
2022-08-17T14:05:42.952Z,32.01
2022-08-17T14:08:10.600Z,31.87
2022-08-17T14:10:36.859Z,31.75
2022-08-17T14:13:03.309Z,31.63
2022-08-17T14:15:56.330Z,31.48
2022-08-17T14:18:18.276Z,31.31
2022-08-17T14:21:04.505Z,31.24
2022-08-17T14:23:32.204Z,31.15
2022-08-17T14:25:59.125Z,31.09
2022-08-17T14:28:25.272Z,31.05
2022-08-17T14:30:54.798Z,31.02
2022-08-17T14:33:22.129Z,31.16
2022-08-17T14:35:50.865Z,31.26
2022-08-17T14:38:18.149Z,31.26
2022-08-17T14:40:44.930Z,31.25
2022-08-17T14:43:11.350Z,31.27
2022-08-17T14:45:37.616Z,31.30
2022-08-17T14:48:06.847Z,31.21
2022-08-17T14:50:35.859Z,30.95
2022-08-17T14:53:03.886Z,30.58
2022-08-17T14:55:30.490Z,30.31
2022-08-17T14:57:56.914Z,30.07
2022-08-17T15:00:23.148Z,29.85
2022-08-17T15:02:53.018Z,29.63
2022-08-17T15:05:21.372Z,29.47
2022-08-17T15:07:47.675Z,29.37
2022-08-17T15:10:14.571Z,29.30
2022-08-17T15:12:41.238Z,29.26
2022-08-17T15:15:08.905Z,29.23
2022-08-17T15:17:45.234Z,29.14
2022-08-17T15:20:19.576Z,29.11
2022-08-17T15:22:48.697Z,29.05
2022-08-17T15:25:16.147Z,29.02
2022-08-17T15:27:42.429Z,28.97
2022-08-17T15:30:09.402Z,28.93
2022-08-17T15:32:37.377Z,28.84
2022-08-17T15:35:04.710Z,28.76
2022-08-17T15:37:33.905Z,28.65
2022-08-17T15:40:00.687Z,28.56
2022-08-17T15:42:27.320Z,28.47
2022-08-17T15:44:56.782Z,28.39
2022-08-17T15:47:23.771Z,28.28
2022-08-17T15:49:50.215Z,28.20
2022-08-17T15:52:26.526Z,28.12
2022-08-17T15:54:56.963Z,28.04
2022-08-17T15:57:25.990Z,27.99
2022-08-17T15:59:55.182Z,27.94
2022-08-17T16:03:44.866Z,27.87
2022-08-17T16:05:21.321Z,27.79
2022-08-17T16:07:50.609Z,27.72
2022-08-17T16:10:19.184Z,27.63
2022-08-17T16:12:46.693Z,27.55
2022-08-17T16:15:13.139Z,27.48
2022-08-17T16:17:40.812Z,27.44
2022-08-17T16:20:08.297Z,27.39
2022-08-17T16:22:36.081Z,27.37
2022-08-17T16:25:04.612Z,27.31
2022-08-17T16:27:30.810Z,27.26
2022-08-17T16:29:57.251Z,27.18
2022-08-17T16:32:31.797Z,27.18
2022-08-17T16:35:07.385Z,27.14
2022-08-17T16:37:34.318Z,27.10
2022-08-17T16:40:01.439Z,27.07
2022-08-17T16:42:30.838Z,27.03
2022-08-17T16:45:03.190Z,26.99
2022-08-17T16:47:29.908Z,26.94
2022-08-17T16:49:56.217Z,26.89
2022-08-17T16:52:32.448Z,26.84
2022-08-17T16:55:00.205Z,26.80
2022-08-17T16:57:26.657Z,26.77
2022-08-17T16:59:53.216Z,26.72
2022-08-17T17:02:36.744Z,26.67
2022-08-17T17:05:05.617Z,26.61
2022-08-17T17:07:33.078Z,26.53
2022-08-17T17:10:03.427Z,26.46
2022-08-17T17:12:34.973Z,26.39
2022-08-17T17:15:21.961Z,26.30
2022-08-17T17:17:48.920Z,26.22
2022-08-17T17:20:15.269Z,26.14
2022-08-17T17:23:00.189Z,26.04
2022-08-17T17:25:38.856Z,25.90
2022-08-17T17:28:07.689Z,25.77
2022-08-17T17:30:39.335Z,25.69
2022-08-17T17:33:06.490Z,25.61
2022-08-17T17:35:34.253Z,25.51
2022-08-17T17:38:04.769Z,25.41
2022-08-17T17:40:41.820Z,25.32
2022-08-17T17:43:37.060Z,25.20
2022-08-17T17:46:28.339Z,25.08
2022-08-17T17:48:54.770Z,25.02
2022-08-17T17:52:06.662Z,24.98
2022-08-17T17:54:20.437Z,24.95
2022-08-17T17:56:52.033Z,24.89
2022-08-17T17:59:44.130Z,24.82
2022-08-17T18:02:39.398Z,24.72
2022-08-17T18:05:08.674Z,24.63
2022-08-17T18:07:40.382Z,24.54
2022-08-17T18:10:29.619Z,24.46
2022-08-17T18:13:02.919Z,24.36
2022-08-17T18:15:31.835Z,24.27
2022-08-17T18:17:59.896Z,24.19
2022-08-17T18:20:32.461Z,24.10
2022-08-17T18:23:09.455Z,24.03
2022-08-17T18:25:44.877Z,23.95
2022-08-17T18:28:25.234Z,23.87
2022-08-17T18:31:10.234Z,23.79
2022-08-17T18:33:37.671Z,23.71
2022-08-17T18:36:04.062Z,23.64
2022-08-17T18:38:34.742Z,23.53
2022-08-17T18:41:23.038Z,23.43
2022-08-17T18:44:12.370Z,23.32
2022-08-17T18:46:39.456Z,23.24
2022-08-17T18:49:07.863Z,23.15
2022-08-17T18:51:40.558Z,23.09
2022-08-17T18:54:19.857Z,23.02
2022-08-17T18:56:58.853Z,22.93
2022-08-17T18:59:41.596Z,22.82
2022-08-17T19:02:18.670Z,22.74
2022-08-17T19:04:58.982Z,22.67
2022-08-17T19:07:28.721Z,22.60
2022-08-17T19:09:58.169Z,22.54
2022-08-17T19:12:27.669Z,22.47
2022-08-17T19:14:55.241Z,22.42
2022-08-17T19:17:23.865Z,22.38
2022-08-17T19:19:53.640Z,22.34
2022-08-17T19:22:28.727Z,22.26
2022-08-17T19:25:10.501Z,22.19
2022-08-17T19:27:41.952Z,22.13
2022-08-17T19:30:24.365Z,22.08
2022-08-17T19:32:51.817Z,22.02
2022-08-17T19:35:19.524Z,21.95
2022-08-17T19:37:55.780Z,21.89
2022-08-17T19:40:51.249Z,21.82
2022-08-17T19:43:14.257Z,21.75
2022-08-17T19:45:46.570Z,21.68
2022-08-17T19:48:31.660Z,21.61
2022-08-17T19:50:59.655Z,21.55
2022-08-17T19:53:41.997Z,21.49
2022-08-17T19:56:38.552Z,21.42
2022-08-17T19:59:23.916Z,21.38
2022-08-17T20:01:57.473Z,21.35
2022-08-17T20:04:31.498Z,21.30
2022-08-17T20:07:03.071Z,21.25
2022-08-17T20:09:39.641Z,21.19
2022-08-17T20:12:08.779Z,21.13
2022-08-17T20:14:55.212Z,21.06
2022-08-17T20:17:28.268Z,21.03
2022-08-17T20:20:01.336Z,20.98
2022-08-17T20:22:50.370Z,20.94
2022-08-17T20:25:30.254Z,20.90
2022-08-17T20:28:05.983Z,20.89
2022-08-17T20:30:36.641Z,20.87
2022-08-17T20:33:03.757Z,20.84
2022-08-17T20:35:34.184Z,20.81
2022-08-17T20:38:03.294Z,20.78
2022-08-17T20:40:29.434Z,20.74
2022-08-17T20:42:55.943Z,20.69
2022-08-17T20:45:25.338Z,20.65
2022-08-17T20:48:15.982Z,20.63
2022-08-17T20:50:40.776Z,20.61
2022-08-17T20:53:08.920Z,20.62
2022-08-17T20:55:35.731Z,20.59
2022-08-17T20:58:30.616Z,20.52
2022-08-17T21:01:01.813Z,20.44
2022-08-17T21:03:28.165Z,20.38
2022-08-17T21:06:17.514Z,20.32
2022-08-17T21:08:58.204Z,20.26
2022-08-17T21:12:03.262Z,20.20
2022-08-17T21:14:26.161Z,20.17
2022-08-17T21:17:11.523Z,20.14
2022-08-17T21:20:00.242Z,20.13
2022-08-17T21:22:27.865Z,20.16
2022-08-17T21:25:06.326Z,20.19
2022-08-17T21:27:51.327Z,20.23
2022-08-17T21:30:23.324Z,20.28
2022-08-17T21:33:14.800Z,20.33
2022-08-17T21:35:49.357Z,20.37
2022-08-17T21:38:16.599Z,20.40
2022-08-17T21:40:44.037Z,20.42
2022-08-17T21:43:22.888Z,20.45
2022-08-17T21:45:56.965Z,20.47
2022-08-17T21:48:24.674Z,20.48
2022-08-17T21:51:03.081Z,20.51
2022-08-17T21:53:37.390Z,20.53
2022-08-17T21:56:04.131Z,20.53
2022-08-17T21:58:31.730Z,20.55
2022-08-17T22:01:13.344Z,20.53
2022-08-17T22:03:39.696Z,20.52
2022-08-17T22:06:25.719Z,20.50
2022-08-17T22:09:03.361Z,20.44
2022-08-17T22:11:31.057Z,20.40
2022-08-17T22:14:00.646Z,20.35
2022-08-17T22:16:31.788Z,20.28
2022-08-17T22:18:58.363Z,20.24
2022-08-17T22:21:25.303Z,20.20
2022-08-17T22:24:05.136Z,20.16
2022-08-17T22:26:50.126Z,20.13
2022-08-17T22:29:35.260Z,20.07
2022-08-17T22:32:01.509Z,20.04
2022-08-17T22:34:27.701Z,19.99
2022-08-17T22:37:12.515Z,19.98
2022-08-17T22:39:39.707Z,19.96
2022-08-17T22:42:07.802Z,19.95
2022-08-17T22:44:36.939Z,19.97
2022-08-17T22:47:11.426Z,19.97
2022-08-17T22:49:53.264Z,19.98
2022-08-17T22:52:22.852Z,19.97
2022-08-17T22:55:09.594Z,19.96
2022-08-17T22:57:54.993Z,19.94
2022-08-17T23:00:30.713Z,19.92
2022-08-17T23:03:06.016Z,19.92
2022-08-17T23:05:33.495Z,19.90
2022-08-17T23:07:59.755Z,19.87
2022-08-17T23:10:26.411Z,19.84
2022-08-17T23:12:56.140Z,19.83
2022-08-17T23:15:23.617Z,19.81
2022-08-17T23:17:49.840Z,19.79
2022-08-17T23:20:16.939Z,19.77
2022-08-17T23:22:51.844Z,19.74
2022-08-17T23:25:27.162Z,19.69
2022-08-17T23:27:53.930Z,19.64
2022-08-17T23:30:22.485Z,19.60
2022-08-17T23:32:53.447Z,19.56
2022-08-17T23:35:20.477Z,19.52
2022-08-17T23:38:09.918Z,19.47
2022-08-17T23:40:37.029Z,19.43
2022-08-17T23:43:09.787Z,19.41
2022-08-17T23:45:51.760Z,19.41
2022-08-17T23:48:30.349Z,19.39
2022-08-17T23:51:13.642Z,19.33
2022-08-17T23:53:41.342Z,19.31
2022-08-17T23:56:10.904Z,19.29
2022-08-17T23:58:39.016Z,19.27
